sensor_id;sensor_type;location;lat;lon;timestamp;P1;durP1;ratioP1;P2;durP2;ratioP2
25758;SDS011;13604;52.496;13.456;2024-01-15T00:01:05;22.42;;;10.98;;
25758;SDS011;13604;52.496;13.456;2024-01-15T00:03:31;22.30;;;11.48;;
25758;SDS011;13604;52.496;13.456;2024-01-15T00:05:57;24.05;;;11.98;;
25758;SDS011;13604;52.496;13.456;2024-01-15T00:08:22;22.48;;;11.63;;
25758;SDS011;13604;52.496;13.456;2024-01-15T00:10:48;21.13;;;11.05;;
25758;SDS011;13604;52.496;13.456;2024-01-15T00:13:13;22.73;;;10.40;;
25758;SDS011;13604;52.496;13.456;2024-01-15T00:15:38;20.83;;;10.82;;
25758;SDS011;13604;52.496;13.456;2024-01-15T00:18:04;22.48;;;11.88;;
25758;SDS011;13604;52.496;13.456;2024-01-15T00:20:29;21.48;;;11.55;;
25758;SDS011;13604;52.496;13.456;2024-01-15T00:22:54;22.38;;;11.43;;
25758;SDS011;13604;52.496;13.456;2024-01-15T00:25:20;21.85;;;11.32;;
25758;SDS011;13604;52.496;13.456;2024-01-15T00:27:45;23.00;;;11.50;;
25758;SDS011;13604;52.496;13.456;2024-01-15T00:30:10;20.92;;;10.77;;
25758;SDS011;13604;52.496;13.456;2024-01-15T00:32:36;23.10;;;11.48;;
25758;SDS011;13604;52.496;13.456;2024-01-15T00:35:01;20.38;;;11.23;;
25758;SDS011;13604;52.496;13.456;2024-01-15T00:37:28;19.88;;;11.82;;
25758;SDS011;13604;52.496;13.456;2024-01-15T00:39:53;23.70;;;11.55;;
25758;SDS011;13604;52.496;13.456;2024-01-15T00:42:19;21.23;;;10.70;;
25758;SDS011;13604;52.496;13.456;2024-01-15T00:44:44;19.08;;;10.45;;
25758;SDS011;13604;52.496;13.456;2024-01-15T00:47:09;18.00;;;10.05;;
25758;SDS011;13604;52.496;13.456;2024-01-15T00:49:34;20.52;;;10.88;;
25758;SDS011;13604;52.496;13.456;2024-01-15T00:52:00;21.95;;;11.20;;
25758;SDS011;13604;52.496;13.456;2024-01-15T00:54:26;18.08;;;10.90;;
25758;SDS011;13604;52.496;13.456;2024-01-15T00:56:51;20.05;;;11.07;;
25758;SDS011;13604;52.496;13.456;2024-01-15T00:59:16;19.33;;;10.57;;
25758;SDS011;13604;52.496;13.456;2024-01-15T01:01:42;21.17;;;10.98;;
25758;SDS011;13604;52.496;13.456;2024-01-15T01:04:11;21.10;;;10.70;;
25758;SDS011;13604;52.496;13.456;2024-01-15T01:06:36;21.30;;;11.20;;
25758;SDS011;13604;52.496;13.456;2024-01-15T01:09:02;23.15;;;11.40;;
25758;SDS011;13604;52.496;13.456;2024-01-15T01:11:27;22.65;;;11.32;;
25758;SDS011;13604;52.496;13.456;2024-01-15T01:13:52;25.85;;;12.90;;
25758;SDS011;13604;52.496;13.456;2024-01-15T01:16:18;20.58;;;12.07;;
25758;SDS011;13604;52.496;13.456;2024-01-15T01:18:43;19.52;;;10.07;;
25758;SDS011;13604;52.496;13.456;2024-01-15T01:21:08;22.33;;;11.52;;
25758;SDS011;13604;52.496;13.456;2024-01-15T01:23:33;24.65;;;11.43;;
25758;SDS011;13604;52.496;13.456;2024-01-15T01:25:59;20.95;;;11.20;;
25758;SDS011;13604;52.496;13.456;2024-01-15T01:28:24;23.73;;;11.90;;
25758;SDS011;13604;52.496;13.456;2024-01-15T01:30:49;27.75;;;12.07;;
25758;SDS011;13604;52.496;13.456;2024-01-15T01:33:15;24.55;;;11.15;;
25758;SDS011;13604;52.496;13.456;2024-01-15T01:35:40;27.00;;;12.15;;
25758;SDS011;13604;52.496;13.456;2024-01-15T01:38:05;26.10;;;12.23;;
25758;SDS011;13604;52.496;13.456;2024-01-15T01:40:31;23.83;;;11.63;;
25758;SDS011;13604;52.496;13.456;2024-01-15T01:42:56;29.73;;;13.10;;
25758;SDS011;13604;52.496;13.456;2024-01-15T01:45:21;23.65;;;11.70;;
25758;SDS011;13604;52.496;13.456;2024-01-15T01:47:46;22.17;;;10.73;;
25758;SDS011;13604;52.496;13.456;2024-01-15T01:50:12;25.77;;;12.30;;
25758;SDS011;13604;52.496;13.456;2024-01-15T01:52:39;22.40;;;11.82;;
25758;SDS011;13604;52.496;13.456;2024-01-15T01:55:05;25.88;;;12.35;;
25758;SDS011;13604;52.496;13.456;2024-01-15T01:57:32;26.25;;;12.43;;
25758;SDS011;13604;52.496;13.456;2024-01-15T01:59:59;24.33;;;12.93;;
25758;SDS011;13604;52.496;13.456;2024-01-15T02:02:26;28.45;;;13.38;;
25758;SDS011;13604;52.496;13.456;2024-01-15T02:04:51;27.30;;;13.63;;
25758;SDS011;13604;52.496;13.456;2024-01-15T02:07:17;32.50;;;13.90;;
25758;SDS011;13604;52.496;13.456;2024-01-15T02:09:42;31.52;;;14.32;;
25758;SDS011;13604;52.496;13.456;2024-01-15T02:12:09;28.55;;;14.50;;
25758;SDS011;13604;52.496;13.456;2024-01-15T02:14:34;31.40;;;14.52;;
25758;SDS011;13604;52.496;13.456;2024-01-15T02:17:00;31.75;;;13.65;;
25758;SDS011;13604;52.496;13.456;2024-01-15T02:19:25;27.33;;;12.80;;
25758;SDS011;13604;52.496;13.456;2024-01-15T02:21:50;23.85;;;12.75;;
25758;SDS011;13604;52.496;13.456;2024-01-15T02:24:16;26.15;;;12.25;;
25758;SDS011;13604;52.496;13.456;2024-01-15T02:26:41;27.25;;;12.02;;
25758;SDS011;13604;52.496;13.456;2024-01-15T02:29:07;24.58;;;11.75;;
25758;SDS011;13604;52.496;13.456;2024-01-15T02:31:36;28.92;;;12.05;;
25758;SDS011;13604;52.496;13.456;2024-01-15T02:34:02;28.27;;;11.77;;
25758;SDS011;13604;52.496;13.456;2024-01-15T02:36:27;24.38;;;10.70;;
25758;SDS011;13604;52.496;13.456;2024-01-15T02:38:52;26.98;;;10.90;;
25758;SDS011;13604;52.496;13.456;2024-01-15T02:41:17;26.90;;;10.38;;
25758;SDS011;13604;52.496;13.456;2024-01-15T02:43:43;18.67;;;9.50;;
25758;SDS011;13604;52.496;13.456;2024-01-15T02:46:08;25.83;;;11.23;;
25758;SDS011;13604;52.496;13.456;2024-01-15T02:48:33;27.60;;;10.93;;
25758;SDS011;13604;52.496;13.456;2024-01-15T02:51:00;28.92;;;10.88;;
25758;SDS011;13604;52.496;13.456;2024-01-15T02:53:25;24.60;;;11.27;;
25758;SDS011;13604;52.496;13.456;2024-01-15T02:55:51;24.65;;;10.52;;
25758;SDS011;13604;52.496;13.456;2024-01-15T02:58:16;24.02;;;10.55;;
25758;SDS011;13604;52.496;13.456;2024-01-15T03:00:41;24.60;;;10.40;;
25758;SDS011;13604;52.496;13.456;2024-01-15T03:03:07;20.17;;;9.77;;
25758;SDS011;13604;52.496;13.456;2024-01-15T03:05:32;20.33;;;9.20;;
25758;SDS011;13604;52.496;13.456;2024-01-15T03:07:58;19.35;;;9.65;;
25758;SDS011;13604;52.496;13.456;2024-01-15T03:10:23;19.13;;;10.25;;
25758;SDS011;13604;52.496;13.456;2024-01-15T03:12:48;20.95;;;9.82;;
25758;SDS011;13604;52.496;13.456;2024-01-15T03:15:14;20.63;;;8.95;;
25758;SDS011;13604;52.496;13.456;2024-01-15T03:17:40;19.17;;;8.30;;
25758;SDS011;13604;52.496;13.456;2024-01-15T03:20:06;21.75;;;8.13;;
25758;SDS011;13604;52.496;13.456;2024-01-15T03:22:32;18.65;;;8.18;;
25758;SDS011;13604;52.496;13.456;2024-01-15T03:24:57;17.45;;;8.18;;
25758;SDS011;13604;52.496;13.456;2024-01-15T03:27:23;15.95;;;8.15;;
25758;SDS011;13604;52.496;13.456;2024-01-15T03:29:48;14.65;;;7.75;;
25758;SDS011;13604;52.496;13.456;2024-01-15T03:32:13;17.05;;;8.30;;
25758;SDS011;13604;52.496;13.456;2024-01-15T03:34:40;23.55;;;9.00;;
25758;SDS011;13604;52.496;13.456;2024-01-15T03:37:06;14.48;;;7.47;;
25758;SDS011;13604;52.496;13.456;2024-01-15T03:39:31;18.08;;;8.13;;
25758;SDS011;13604;52.496;13.456;2024-01-15T03:41:56;14.57;;;7.20;;
25758;SDS011;13604;52.496;13.456;2024-01-15T03:44:22;18.67;;;8.05;;
25758;SDS011;13604;52.496;13.456;2024-01-15T03:46:47;16.65;;;6.90;;
25758;SDS011;13604;52.496;13.456;2024-01-15T03:49:13;18.02;;;7.45;;
25758;SDS011;13604;52.496;13.456;2024-01-15T03:51:38;18.52;;;7.82;;
25758;SDS011;13604;52.496;13.456;2024-01-15T03:54:03;15.63;;;7.25;;
25758;SDS011;13604;52.496;13.456;2024-01-15T03:56:29;15.98;;;7.07;;
25758;SDS011;13604;52.496;13.456;2024-01-15T03:58:54;20.85;;;7.15;;
25758;SDS011;13604;52.496;13.456;2024-01-15T04:01:19;17.25;;;7.75;;
25758;SDS011;13604;52.496;13.456;2024-01-15T04:03:45;15.52;;;7.03;;
25758;SDS011;13604;52.496;13.456;2024-01-15T04:06:10;15.70;;;6.78;;
25758;SDS011;13604;52.496;13.456;2024-01-15T04:08:35;14.57;;;6.43;;
25758;SDS011;13604;52.496;13.456;2024-01-15T04:11:00;18.50;;;7.25;;
25758;SDS011;13604;52.496;13.456;2024-01-15T04:13:26;14.63;;;6.45;;
25758;SDS011;13604;52.496;13.456;2024-01-15T04:15:52;18.50;;;6.50;;
25758;SDS011;13604;52.496;13.456;2024-01-15T04:18:17;16.33;;;6.45;;
25758;SDS011;13604;52.496;13.456;2024-01-15T04:20:43;14.27;;;6.78;;
25758;SDS011;13604;52.496;13.456;2024-01-15T04:23:08;15.60;;;6.18;;
25758;SDS011;13604;52.496;13.456;2024-01-15T04:25:33;11.95;;;6.18;;
25758;SDS011;13604;52.496;13.456;2024-01-15T04:27:59;19.05;;;5.55;;
25758;SDS011;13604;52.496;13.456;2024-01-15T04:30:24;15.25;;;5.60;;
25758;SDS011;13604;52.496;13.456;2024-01-15T04:32:49;14.55;;;5.45;;
25758;SDS011;13604;52.496;13.456;2024-01-15T04:35:15;15.02;;;5.90;;
25758;SDS011;13604;52.496;13.456;2024-01-15T04:37:40;20.25;;;5.35;;
25758;SDS011;13604;52.496;13.456;2024-01-15T04:40:06;16.17;;;5.57;;
25758;SDS011;13604;52.496;13.456;2024-01-15T04:42:32;13.18;;;5.30;;
25758;SDS011;13604;52.496;13.456;2024-01-15T04:44:57;15.30;;;4.40;;
25758;SDS011;13604;52.496;13.456;2024-01-15T04:47:23;16.48;;;5.20;;
25758;SDS011;13604;52.496;13.456;2024-01-15T04:49:48;17.17;;;5.13;;
25758;SDS011;13604;52.496;13.456;2024-01-15T04:52:14;10.63;;;4.38;;
25758;SDS011;13604;52.496;13.456;2024-01-15T04:54:39;12.70;;;4.78;;
25758;SDS011;13604;52.496;13.456;2024-01-15T04:57:04;18.15;;;4.35;;
25758;SDS011;13604;52.496;13.456;2024-01-15T04:59:30;11.30;;;4.57;;
25758;SDS011;13604;52.496;13.456;2024-01-15T05:01:56;12.82;;;4.13;;
25758;SDS011;13604;52.496;13.456;2024-01-15T05:04:21;12.35;;;4.28;;
25758;SDS011;13604;52.496;13.456;2024-01-15T05:06:47;10.95;;;3.97;;
25758;SDS011;13604;52.496;13.456;2024-01-15T05:09:12;13.93;;;4.38;;
25758;SDS011;13604;52.496;13.456;2024-01-15T05:11:38;9.38;;;4.05;;
25758;SDS011;13604;52.496;13.456;2024-01-15T05:14:04;13.90;;;3.97;;
25758;SDS011;13604;52.496;13.456;2024-01-15T05:16:29;9.93;;;3.10;;
25758;SDS011;13604;52.496;13.456;2024-01-15T05:18:54;12.55;;;3.42;;
25758;SDS011;13604;52.496;13.456;2024-01-15T05:21:20;11.60;;;3.28;;
25758;SDS011;13604;52.496;13.456;2024-01-15T05:23:45;8.18;;;3.00;;
25758;SDS011;13604;52.496;13.456;2024-01-15T05:26:10;14.68;;;3.85;;
25758;SDS011;13604;52.496;13.456;2024-01-15T05:28:35;12.70;;;3.47;;
25758;SDS011;13604;52.496;13.456;2024-01-15T05:31:01;15.10;;;3.47;;
25758;SDS011;13604;52.496;13.456;2024-01-15T05:33:26;13.85;;;3.42;;
25758;SDS011;13604;52.496;13.456;2024-01-15T05:35:51;10.88;;;3.22;;
25758;SDS011;13604;52.496;13.456;2024-01-15T05:38:18;13.90;;;3.33;;
25758;SDS011;13604;52.496;13.456;2024-01-15T05:40:43;10.52;;;3.05;;
25758;SDS011;13604;52.496;13.456;2024-01-15T05:43:08;8.60;;;3.50;;
25758;SDS011;13604;52.496;13.456;2024-01-15T05:45:34;11.40;;;3.28;;
25758;SDS011;13604;52.496;13.456;2024-01-15T05:48:00;14.73;;;3.10;;
25758;SDS011;13604;52.496;13.456;2024-01-15T05:50:26;17.92;;;3.30;;
25758;SDS011;13604;52.496;13.456;2024-01-15T05:52:51;10.18;;;3.10;;
25758;SDS011;13604;52.496;13.456;2024-01-15T05:55:17;9.55;;;3.08;;
25758;SDS011;13604;52.496;13.456;2024-01-15T05:57:43;12.02;;;3.42;;
25758;SDS011;13604;52.496;13.456;2024-01-15T06:00:08;12.07;;;3.22;;
25758;SDS011;13604;52.496;13.456;2024-01-15T06:02:35;9.15;;;2.75;;
25758;SDS011;13604;52.496;13.456;2024-01-15T06:05:00;8.43;;;2.83;;
25758;SDS011;13604;52.496;13.456;2024-01-15T06:07:26;8.80;;;2.97;;
25758;SDS011;13604;52.496;13.456;2024-01-15T06:09:52;11.48;;;3.08;;
25758;SDS011;13604;52.496;13.456;2024-01-15T06:12:17;8.20;;;3.17;;
25758;SDS011;13604;52.496;13.456;2024-01-15T06:14:42;10.05;;;2.83;;
25758;SDS011;13604;52.496;13.456;2024-01-15T06:17:08;15.88;;;3.60;;
25758;SDS011;13604;52.496;13.456;2024-01-15T06:19:33;11.77;;;3.35;;
25758;SDS011;13604;52.496;13.456;2024-01-15T06:21:58;10.48;;;3.35;;
25758;SDS011;13604;52.496;13.456;2024-01-15T06:24:23;11.98;;;3.05;;
25758;SDS011;13604;52.496;13.456;2024-01-15T06:26:49;13.32;;;2.97;;
25758;SDS011;13604;52.496;13.456;2024-01-15T06:29:14;17.80;;;2.92;;
25758;SDS011;13604;52.496;13.456;2024-01-15T06:31:39;11.43;;;2.75;;
25758;SDS011;13604;52.496;13.456;2024-01-15T06:34:05;12.45;;;3.22;;
25758;SDS011;13604;52.496;13.456;2024-01-15T06:36:30;10.23;;;2.60;;
25758;SDS011;13604;52.496;13.456;2024-01-15T06:38:55;8.10;;;2.70;;
25758;SDS011;13604;52.496;13.456;2024-01-15T06:41:21;11.98;;;2.83;;
25758;SDS011;13604;52.496;13.456;2024-01-15T06:43:46;10.82;;;2.65;;
25758;SDS011;13604;52.496;13.456;2024-01-15T06:46:11;9.35;;;2.72;;
25758;SDS011;13604;52.496;13.456;2024-01-15T06:48:37;17.48;;;3.30;;
25758;SDS011;13604;52.496;13.456;2024-01-15T06:51:02;10.70;;;2.85;;
25758;SDS011;13604;52.496;13.456;2024-01-15T06:53:27;11.48;;;2.55;;
25758;SDS011;13604;52.496;13.456;2024-01-15T06:55:53;8.02;;;2.15;;
25758;SDS011;13604;52.496;13.456;2024-01-15T06:58:18;6.35;;;2.35;;
25758;SDS011;13604;52.496;13.456;2024-01-15T07:00:43;15.13;;;2.67;;
25758;SDS011;13604;52.496;13.456;2024-01-15T07:03:09;16.25;;;2.90;;
25758;SDS011;13604;52.496;13.456;2024-01-15T07:05:34;15.20;;;2.80;;
25758;SDS011;13604;52.496;13.456;2024-01-15T07:07:59;12.35;;;2.03;;
25758;SDS011;13604;52.496;13.456;2024-01-15T07:10:24;14.77;;;3.97;;
25758;SDS011;13604;52.496;13.456;2024-01-15T07:12:51;12.65;;;2.15;;
25758;SDS011;13604;52.496;13.456;2024-01-15T07:15:16;12.05;;;2.10;;
25758;SDS011;13604;52.496;13.456;2024-01-15T07:17:41;9.55;;;2.88;;
25758;SDS011;13604;52.496;13.456;2024-01-15T07:20:07;10.57;;;2.15;;
25758;SDS011;13604;52.496;13.456;2024-01-15T07:22:35;7.55;;;2.00;;
25758;SDS011;13604;52.496;13.456;2024-01-15T07:25:00;18.02;;;2.85;;
25758;SDS011;13604;52.496;13.456;2024-01-15T07:27:26;15.68;;;2.95;;
25758;SDS011;13604;52.496;13.456;2024-01-15T07:29:51;12.48;;;2.35;;
25758;SDS011;13604;52.496;13.456;2024-01-15T07:32:17;16.27;;;2.95;;
25758;SDS011;13604;52.496;13.456;2024-01-15T07:34:42;13.75;;;2.30;;
25758;SDS011;13604;52.496;13.456;2024-01-15T07:37:08;7.22;;;2.33;;
25758;SDS011;13604;52.496;13.456;2024-01-15T07:39:33;10.38;;;2.20;;
25758;SDS011;13604;52.496;13.456;2024-01-15T07:42:00;12.73;;;2.28;;
25758;SDS011;13604;52.496;13.456;2024-01-15T07:44:26;16.25;;;2.45;;
25758;SDS011;13604;52.496;13.456;2024-01-15T07:46:51;14.70;;;2.75;;
25758;SDS011;13604;52.496;13.456;2024-01-15T07:49:16;18.33;;;2.25;;
25758;SDS011;13604;52.496;13.456;2024-01-15T07:51:42;15.25;;;2.17;;
25758;SDS011;13604;52.496;13.456;2024-01-15T07:54:08;9.30;;;2.92;;
25758;SDS011;13604;52.496;13.456;2024-01-15T07:56:34;12.77;;;1.90;;
25758;SDS011;13604;52.496;13.456;2024-01-15T07:58:59;15.05;;;2.42;;
25758;SDS011;13604;52.496;13.456;2024-01-15T08:01:24;9.02;;;2.13;;
25758;SDS011;13604;52.496;13.456;2024-01-15T08:03:50;9.77;;;2.00;;
25758;SDS011;13604;52.496;13.456;2024-01-15T08:06:15;12.43;;;2.60;;
25758;SDS011;13604;52.496;13.456;2024-01-15T08:08:41;13.90;;;2.72;;
25758;SDS011;13604;52.496;13.456;2024-01-15T08:11:06;9.93;;;1.75;;
25758;SDS011;13604;52.496;13.456;2024-01-15T08:13:32;10.95;;;2.10;;
25758;SDS011;13604;52.496;13.456;2024-01-15T08:15:57;8.43;;;2.63;;
25758;SDS011;13604;52.496;13.456;2024-01-15T08:18:22;19.08;;;2.67;;
25758;SDS011;13604;52.496;13.456;2024-01-15T08:20:48;16.95;;;2.95;;
25758;SDS011;13604;52.496;13.456;2024-01-15T08:23:13;13.45;;;2.38;;
25758;SDS011;13604;52.496;13.456;2024-01-15T08:25:38;16.08;;;2.75;;
25758;SDS011;13604;52.496;13.456;2024-01-15T08:28:04;15.35;;;2.30;;
25758;SDS011;13604;52.496;13.456;2024-01-15T08:30:29;10.90;;;2.17;;
25758;SDS011;13604;52.496;13.456;2024-01-15T08:32:55;5.55;;;1.95;;
25758;SDS011;13604;52.496;13.456;2024-01-15T08:35:20;10.23;;;2.78;;
25758;SDS011;13604;52.496;13.456;2024-01-15T08:37:50;13.60;;;2.47;;
25758;SDS011;13604;52.496;13.456;2024-01-15T08:40:15;5.75;;;1.80;;
25758;SDS011;13604;52.496;13.456;2024-01-15T08:42:41;8.95;;;2.83;;
25758;SDS011;13604;52.496;13.456;2024-01-15T08:45:08;11.23;;;2.17;;
25758;SDS011;13604;52.496;13.456;2024-01-15T08:47:33;12.15;;;2.67;;
25758;SDS011;13604;52.496;13.456;2024-01-15T08:49:59;14.15;;;2.53;;
25758;SDS011;13604;52.496;13.456;2024-01-15T08:52:25;14.13;;;2.45;;
25758;SDS011;13604;52.496;13.456;2024-01-15T08:54:50;16.65;;;2.83;;
25758;SDS011;13604;52.496;13.456;2024-01-15T08:57:15;9.70;;;2.22;;
25758;SDS011;13604;52.496;13.456;2024-01-15T08:59:40;10.85;;;2.53;;
25758;SDS011;13604;52.496;13.456;2024-01-15T09:02:06;10.32;;;2.42;;
25758;SDS011;13604;52.496;13.456;2024-01-15T09:04:32;14.30;;;2.40;;
25758;SDS011;13604;52.496;13.456;2024-01-15T09:06:58;10.25;;;1.98;;
25758;SDS011;13604;52.496;13.456;2024-01-15T09:09:23;5.93;;;1.73;;
25758;SDS011;13604;52.496;13.456;2024-01-15T09:11:49;14.77;;;2.60;;
25758;SDS011;13604;52.496;13.456;2024-01-15T09:14:15;10.75;;;2.28;;
25758;SDS011;13604;52.496;13.456;2024-01-15T09:16:40;9.05;;;2.10;;
25758;SDS011;13604;52.496;13.456;2024-01-15T09:19:13;11.63;;;2.72;;
25758;SDS011;13604;52.496;13.456;2024-01-15T09:21:39;12.57;;;2.97;;
25758;SDS011;13604;52.496;13.456;2024-01-15T09:24:05;19.35;;;2.85;;
25758;SDS011;13604;52.496;13.456;2024-01-15T09:26:30;8.50;;;2.53;;
25758;SDS011;13604;52.496;13.456;2024-01-15T09:28:55;10.98;;;2.25;;
25758;SDS011;13604;52.496;13.456;2024-01-15T09:31:21;7.80;;;2.22;;
25758;SDS011;13604;52.496;13.456;2024-01-15T09:33:47;17.98;;;3.22;;
25758;SDS011;13604;52.496;13.456;2024-01-15T09:36:12;11.60;;;2.83;;
25758;SDS011;13604;52.496;13.456;2024-01-15T09:38:39;14.07;;;2.58;;
25758;SDS011;13604;52.496;13.456;2024-01-15T09:41:05;11.68;;;2.78;;
25758;SDS011;13604;52.496;13.456;2024-01-15T09:43:31;8.68;;;2.50;;
25758;SDS011;13604;52.496;13.456;2024-01-15T09:45:56;11.68;;;2.30;;
25758;SDS011;13604;52.496;13.456;2024-01-15T09:48:22;10.52;;;2.22;;
25758;SDS011;13604;52.496;13.456;2024-01-15T09:50:47;8.20;;;2.03;;
25758;SDS011;13604;52.496;13.456;2024-01-15T09:53:13;12.52;;;2.45;;
25758;SDS011;13604;52.496;13.456;2024-01-15T09:55:40;8.00;;;1.80;;
25758;SDS011;13604;52.496;13.456;2024-01-15T09:58:06;11.55;;;1.88;;
25758;SDS011;13604;52.496;13.456;2024-01-15T10:00:31;7.63;;;2.10;;
25758;SDS011;13604;52.496;13.456;2024-01-15T10:02:58;9.40;;;2.15;;
25758;SDS011;13604;52.496;13.456;2024-01-15T10:05:25;6.75;;;1.73;;
25758;SDS011;13604;52.496;13.456;2024-01-15T10:07:51;10.98;;;2.10;;
25758;SDS011;13604;52.496;13.456;2024-01-15T10:10:19;7.15;;;1.75;;
25758;SDS011;13604;52.496;13.456;2024-01-15T10:12:46;7.45;;;2.40;;
25758;SDS011;13604;52.496;13.456;2024-01-15T10:15:12;9.48;;;2.30;;
25758;SDS011;13604;52.496;13.456;2024-01-15T10:17:38;5.15;;;1.90;;
25758;SDS011;13604;52.496;13.456;2024-01-15T10:20:07;7.32;;;2.22;;
25758;SDS011;13604;52.496;13.456;2024-01-15T10:22:37;6.10;;;2.20;;
25758;SDS011;13604;52.496;13.456;2024-01-15T10:25:05;8.73;;;2.22;;
25758;SDS011;13604;52.496;13.456;2024-01-15T10:27:30;6.90;;;1.92;;
25758;SDS011;13604;52.496;13.456;2024-01-15T10:29:59;11.90;;;1.77;;
25758;SDS011;13604;52.496;13.456;2024-01-15T10:32:24;8.23;;;2.50;;
25758;SDS011;13604;52.496;13.456;2024-01-15T10:34:51;7.80;;;2.25;;
25758;SDS011;13604;52.496;13.456;2024-01-15T10:37:17;8.52;;;1.88;;
25758;SDS011;13604;52.496;13.456;2024-01-15T10:39:43;5.20;;;2.20;;
25758;SDS011;13604;52.496;13.456;2024-01-15T10:42:09;6.05;;;2.03;;
25758;SDS011;13604;52.496;13.456;2024-01-15T10:44:34;8.48;;;2.22;;
25758;SDS011;13604;52.496;13.456;2024-01-15T10:47:00;7.15;;;2.03;;
25758;SDS011;13604;52.496;13.456;2024-01-15T10:49:25;9.15;;;2.33;;
25758;SDS011;13604;52.496;13.456;2024-01-15T10:51:52;8.52;;;2.08;;
25758;SDS011;13604;52.496;13.456;2024-01-15T10:54:18;6.53;;;1.90;;
25758;SDS011;13604;52.496;13.456;2024-01-15T10:56:45;6.95;;;2.10;;
25758;SDS011;13604;52.496;13.456;2024-01-15T10:59:11;6.07;;;2.00;;
25758;SDS011;13604;52.496;13.456;2024-01-15T11:01:38;5.05;;;1.98;;
25758;SDS011;13604;52.496;13.456;2024-01-15T11:04:03;4.90;;;1.70;;
25758;SDS011;13604;52.496;13.456;2024-01-15T11:06:29;12.38;;;2.88;;
25758;SDS011;13604;52.496;13.456;2024-01-15T11:09:07;12.27;;;1.73;;
25758;SDS011;13604;52.496;13.456;2024-01-15T11:11:34;2.00;;;1.35;;
25758;SDS011;13604;52.496;13.456;2024-01-15T11:14:01;5.95;;;1.85;;
25758;SDS011;13604;52.496;13.456;2024-01-15T11:16:26;4.80;;;1.95;;
25758;SDS011;13604;52.496;13.456;2024-01-15T11:19:21;5.82;;;1.60;;
25758;SDS011;13604;52.496;13.456;2024-01-15T11:21:47;6.22;;;1.60;;
25758;SDS011;13604;52.496;13.456;2024-01-15T11:24:12;4.28;;;1.90;;
25758;SDS011;13604;52.496;13.456;2024-01-15T11:26:59;10.57;;;2.72;;
25758;SDS011;13604;52.496;13.456;2024-01-15T11:34:21;4.03;;;1.70;;
25758;SDS011;13604;52.496;13.456;2024-01-15T11:37:23;9.65;;;1.67;;
25758;SDS011;13604;52.496;13.456;2024-01-15T11:39:50;3.75;;;1.50;;
25758;SDS011;13604;52.496;13.456;2024-01-15T11:42:17;4.10;;;1.58;;
25758;SDS011;13604;52.496;13.456;2024-01-15T11:44:43;4.30;;;1.25;;
25758;SDS011;13604;52.496;13.456;2024-01-15T11:47:09;4.43;;;1.50;;
25758;SDS011;13604;52.496;13.456;2024-01-15T11:52:30;3.53;;;1.50;;
25758;SDS011;13604;52.496;13.456;2024-01-15T11:57:53;6.18;;;1.85;;
25758;SDS011;13604;52.496;13.456;2024-01-15T12:00:19;4.72;;;2.17;;
25758;SDS011;13604;52.496;13.456;2024-01-15T12:02:46;5.57;;;2.33;;
25758;SDS011;13604;52.496;13.456;2024-01-15T12:05:12;5.95;;;2.30;;
25758;SDS011;13604;52.496;13.456;2024-01-15T12:07:39;6.47;;;2.55;;
25758;SDS011;13604;52.496;13.456;2024-01-15T12:10:11;11.15;;;2.15;;
25758;SDS011;13604;52.496;13.456;2024-01-15T12:15:22;5.13;;;2.15;;
25758;SDS011;13604;52.496;13.456;2024-01-15T12:17:49;3.58;;;1.83;;
25758;SDS011;13604;52.496;13.456;2024-01-15T12:20:14;5.68;;;2.65;;
25758;SDS011;13604;52.496;13.456;2024-01-15T12:22:41;4.20;;;1.77;;
25758;SDS011;13604;52.496;13.456;2024-01-15T12:25:06;3.78;;;1.80;;
25758;SDS011;13604;52.496;13.456;2024-01-15T12:27:31;4.00;;;1.80;;
25758;SDS011;13604;52.496;13.456;2024-01-15T12:29:58;3.67;;;2.30;;
25758;SDS011;13604;52.496;13.456;2024-01-15T12:32:23;3.15;;;1.98;;
25758;SDS011;13604;52.496;13.456;2024-01-15T12:34:49;8.07;;;2.08;;
25758;SDS011;13604;52.496;13.456;2024-01-15T12:37:17;3.15;;;1.73;;
25758;SDS011;13604;52.496;13.456;2024-01-15T12:39:43;12.98;;;2.15;;
25758;SDS011;13604;52.496;13.456;2024-01-15T12:42:09;3.72;;;1.75;;
25758;SDS011;13604;52.496;13.456;2024-01-15T12:44:35;3.50;;;2.28;;
25758;SDS011;13604;52.496;13.456;2024-01-15T12:47:00;2.85;;;1.75;;
25758;SDS011;13604;52.496;13.456;2024-01-15T12:49:26;5.70;;;2.10;;
25758;SDS011;13604;52.496;13.456;2024-01-15T12:51:52;4.32;;;2.13;;
25758;SDS011;13604;52.496;13.456;2024-01-15T12:54:22;4.82;;;2.28;;
25758;SDS011;13604;52.496;13.456;2024-01-15T12:56:48;3.50;;;2.35;;
25758;SDS011;13604;52.496;13.456;2024-01-15T12:59:14;2.05;;;1.60;;
25758;SDS011;13604;52.496;13.456;2024-01-15T13:01:39;6.35;;;2.40;;
25758;SDS011;13604;52.496;13.456;2024-01-15T13:04:05;4.43;;;1.70;;
25758;SDS011;13604;52.496;13.456;2024-01-15T13:06:33;2.75;;;1.70;;
25758;SDS011;13604;52.496;13.456;2024-01-15T13:08:58;4.47;;;2.15;;
25758;SDS011;13604;52.496;13.456;2024-01-15T13:11:24;3.85;;;1.80;;
25758;SDS011;13604;52.496;13.456;2024-01-15T13:13:49;4.82;;;2.10;;
25758;SDS011;13604;52.496;13.456;2024-01-15T13:16:14;4.07;;;2.08;;
25758;SDS011;13604;52.496;13.456;2024-01-15T13:18:40;4.45;;;2.03;;
25758;SDS011;13604;52.496;13.456;2024-01-15T13:21:06;5.28;;;2.00;;
25758;SDS011;13604;52.496;13.456;2024-01-15T13:23:31;5.10;;;1.90;;
25758;SDS011;13604;52.496;13.456;2024-01-15T13:25:56;4.22;;;2.15;;
25758;SDS011;13604;52.496;13.456;2024-01-15T13:28:23;2.38;;;2.00;;
25758;SDS011;13604;52.496;13.456;2024-01-15T13:30:48;5.68;;;2.05;;
25758;SDS011;13604;52.496;13.456;2024-01-15T13:33:13;3.38;;;1.75;;
25758;SDS011;13604;52.496;13.456;2024-01-15T13:35:39;7.38;;;2.50;;
25758;SDS011;13604;52.496;13.456;2024-01-15T13:38:04;5.57;;;2.05;;
25758;SDS011;13604;52.496;13.456;2024-01-15T13:40:29;3.85;;;1.65;;
25758;SDS011;13604;52.496;13.456;2024-01-15T13:42:55;4.13;;;1.75;;
25758;SDS011;13604;52.496;13.456;2024-01-15T13:45:20;2.05;;;1.45;;
25758;SDS011;13604;52.496;13.456;2024-01-15T13:47:45;5.28;;;2.08;;
25758;SDS011;13604;52.496;13.456;2024-01-15T13:50:11;9.40;;;2.05;;
25758;SDS011;13604;52.496;13.456;2024-01-15T13:52:36;4.10;;;2.00;;
25758;SDS011;13604;52.496;13.456;2024-01-15T13:55:02;7.25;;;2.47;;
25758;SDS011;13604;52.496;13.456;2024-01-15T13:57:27;8.25;;;2.08;;
25758;SDS011;13604;52.496;13.456;2024-01-15T13:59:52;5.53;;;2.13;;
25758;SDS011;13604;52.496;13.456;2024-01-15T14:02:18;7.85;;;2.33;;
25758;SDS011;13604;52.496;13.456;2024-01-15T14:04:45;6.75;;;2.00;;
25758;SDS011;13604;52.496;13.456;2024-01-15T14:07:10;4.95;;;2.13;;
25758;SDS011;13604;52.496;13.456;2024-01-15T14:09:35;8.00;;;1.95;;
25758;SDS011;13604;52.496;13.456;2024-01-15T14:12:02;6.07;;;2.00;;
25758;SDS011;13604;52.496;13.456;2024-01-15T14:14:27;3.60;;;2.15;;
25758;SDS011;13604;52.496;13.456;2024-01-15T14:16:53;5.07;;;1.85;;
25758;SDS011;13604;52.496;13.456;2024-01-15T14:19:18;7.90;;;2.30;;
25758;SDS011;13604;52.496;13.456;2024-01-15T14:21:43;7.28;;;2.95;;
25758;SDS011;13604;52.496;13.456;2024-01-15T14:24:09;6.93;;;2.15;;
25758;SDS011;13604;52.496;13.456;2024-01-15T14:26:34;5.35;;;2.40;;
25758;SDS011;13604;52.496;13.456;2024-01-15T14:28:59;9.82;;;2.83;;